Terminal Aerodrome Forecast
Issued by NWS Billings, MT

Current Version | Previous Version | Text Only | Print | Product List | Glossary On
Versions: 1 2 3 4 5 6 7 8 9 10 11 12 13 14 15 16 17
000
FTUS45 KBYZ 231121
TAFBIL
TAF
KBIL 231121Z 2312/2412 29017G22KT P6SM SCT200
     FM231500 30026G37KT P6SM SKC
     FM232300 34016G27KT P6SM FEW080
     FM240300 27008KT P6SM SKC=

USA.gov is the U.S. government's official web portal to all federal, state and local government web resources and services.